Current Observation

FTSO31 AGGG 190510
TAF AGGH 190505Z 1906/2006 36015KT 9999 SCT017
PROB40 INTER 1903/1907 9999 -SHRA BKN018 
T 30 28 26 25 Q 1009 1011 1012 1010=
  
TAF AGGM 182310Z 1900/1924 09008KT 9999 –SHDZ BKN017 
Q 1008 1010 1011 1009=
  
TAF AGGN 182310Z 1900/1924 11015KT 9999 –SHDZ BKN017 
Q 1008 1010 1011 1009=

 

Last modified on Saturday, 19 August 2017 16:12

Weather Outlook

Support and Docs

Modern Design
Go to top